sensor_id;sensor_type;location;lat;lon;timestamp;noise_LAeq;noise_LA_min;noise_LA_max;noise_LA01;noise_LA95
80864;Laerm;70936;51.680;5.974;2023-06-22T00:03:48;36.55;32.91;42.22;;
80864;Laerm;70936;51.680;5.974;2023-06-22T00:07:48;36.18;32.72;54.51;;
80864;Laerm;70936;51.680;5.974;2023-06-22T00:11:48;36.15;32.74;43.13;;
80864;Laerm;70936;51.680;5.974;2023-06-22T00:15:48;36.36;32.61;46.82;;
80864;Laerm;70936;51.680;5.974;2023-06-22T00:19:48;37.98;32.55;48.31;;
80864;Laerm;70936;51.680;5.974;2023-06-22T00:23:48;48.42;35.37;57.28;;
80864;Laerm;70936;51.680;5.974;2023-06-22T00:27:49;38.57;33.16;46.33;;
80864;Laerm;70936;51.680;5.974;2023-06-22T00:31:48;36.57;33.1;49.6;;
80864;Laerm;70936;51.680;5.974;2023-06-22T00:35:48;36.39;32.49;42.81;;
80864;Laerm;70936;51.680;5.974;2023-06-22T00:39:48;37.09;33.17;45.41;;
80864;Laerm;70936;51.680;5.974;2023-06-22T00:43:48;45.52;32.81;63.76;;
80864;Laerm;70936;51.680;5.974;2023-06-22T00:47:48;35.93;32.15;41.9;;
80864;Laerm;70936;51.680;5.974;2023-06-22T00:51:48;36;32.54;43.05;;
80864;Laerm;70936;51.680;5.974;2023-06-22T00:55:48;44.88;32.14;65.75;;
80864;Laerm;70936;51.680;5.974;2023-06-22T00:59:49;35.8;32.43;41.59;;
80864;Laerm;70936;51.680;5.974;2023-06-22T01:03:49;36.11;32.85;41.24;;
80864;Laerm;70936;51.680;5.974;2023-06-22T01:07:57;36.39;33.08;41.87;;
80864;Laerm;70936;51.680;5.974;2023-06-22T01:11:52;36.43;32.95;41.68;;
80864;Laerm;70936;51.680;5.974;2023-06-22T01:15:51;37.2;33.07;56.65;;
80864;Laerm;70936;51.680;5.974;2023-06-22T01:19:49;37.04;33.37;43.24;;
80864;Laerm;70936;51.680;5.974;2023-06-22T01:23:56;36.5;32.67;47.04;;
80864;Laerm;70936;51.680;5.974;2023-06-22T01:27:55;42.1;32.99;68.44;;
80864;Laerm;70936;51.680;5.974;2023-06-22T01:31:49;37.34;33.28;44.61;;
80864;Laerm;70936;51.680;5.974;2023-06-22T01:35:49;45.81;32.8;65.55;;
80864;Laerm;70936;51.680;5.974;2023-06-22T01:39:48;36.98;33.31;42.08;;
80864;Laerm;70936;51.680;5.974;2023-06-22T01:43:49;43.16;33.26;62.51;;
80864;Laerm;70936;51.680;5.974;2023-06-22T01:47:48;38.52;33.88;48.91;;
80864;Laerm;70936;51.680;5.974;2023-06-22T01:51:48;37.96;34.24;43.18;;
80864;Laerm;70936;51.680;5.974;2023-06-22T01:55:49;39.02;35.16;48.59;;
80864;Laerm;70936;51.680;5.974;2023-06-22T01:59:52;43.21;34;61.83;;
80864;Laerm;70936;51.680;5.974;2023-06-22T02:04:00;37.69;33.3;44.23;;
80864;Laerm;70936;51.680;5.974;2023-06-22T02:07:52;38.26;33.64;44.17;;
80864;Laerm;70936;51.680;5.974;2023-06-22T02:11:48;39.3;34.28;46.71;;
80864;Laerm;70936;51.680;5.974;2023-06-22T02:15:49;45.2;34.35;62.36;;
80864;Laerm;70936;51.680;5.974;2023-06-22T02:19:48;47.65;34.17;63.28;;
80864;Laerm;70936;51.680;5.974;2023-06-22T02:23:48;52.6;34.73;74.44;;
80864;Laerm;70936;51.680;5.974;2023-06-22T02:27:49;62.28;34.29;77.52;;
80864;Laerm;70936;51.680;5.974;2023-06-22T02:31:48;61.9;35.02;77.13;;
80864;Laerm;70936;51.680;5.974;2023-06-22T02:35:49;63.1;35.87;77.85;;
80864;Laerm;70936;51.680;5.974;2023-06-22T02:39:48;62.66;34.85;77.58;;
80864;Laerm;70936;51.680;5.974;2023-06-22T02:43:49;63.09;35.25;78;;
80864;Laerm;70936;51.680;5.974;2023-06-22T02:47:49;61.11;35.13;78.92;;
80864;Laerm;70936;51.680;5.974;2023-06-22T02:51:49;57.36;35.86;71.74;;
80864;Laerm;70936;51.680;5.974;2023-06-22T02:55:49;57.74;36.44;71.24;;
80864;Laerm;70936;51.680;5.974;2023-06-22T02:59:48;57.93;35.52;71.25;;
80864;Laerm;70936;51.680;5.974;2023-06-22T03:03:49;58.99;35.23;70.37;;
80864;Laerm;70936;51.680;5.974;2023-06-22T03:07:49;59.02;35.11;69.68;;
80864;Laerm;70936;51.680;5.974;2023-06-22T03:11:48;58.5;35.62;70.85;;
80864;Laerm;70936;51.680;5.974;2023-06-22T03:15:49;57.68;35.84;70.57;;
80864;Laerm;70936;51.680;5.974;2023-06-22T03:19:49;57.61;35.6;69.16;;
80864;Laerm;70936;51.680;5.974;2023-06-22T03:23:49;58.03;36.19;69.75;;
80864;Laerm;70936;51.680;5.974;2023-06-22T03:27:49;56.09;35.46;69.2;;
80864;Laerm;70936;51.680;5.974;2023-06-22T03:31:48;58.25;36.45;72.52;;
80864;Laerm;70936;51.680;5.974;2023-06-22T03:35:49;49.39;36.54;74.44;;
80864;Laerm;70936;51.680;5.974;2023-06-22T03:39:49;52.39;37.12;68.21;;
80864;Laerm;70936;51.680;5.974;2023-06-22T03:43:49;53.16;37.71;69.22;;
80864;Laerm;70936;51.680;5.974;2023-06-22T03:47:49;52.53;38.96;66.93;;
80864;Laerm;70936;51.680;5.974;2023-06-22T03:51:49;52.45;38.46;66.09;;
80864;Laerm;70936;51.680;5.974;2023-06-22T03:55:49;55.06;39.88;67.58;;
80864;Laerm;70936;51.680;5.974;2023-06-22T03:59:49;51.52;39.53;65.79;;
80864;Laerm;70936;51.680;5.974;2023-06-22T04:03:49;55.13;41.75;66.81;;
80864;Laerm;70936;51.680;5.974;2023-06-22T04:07:49;56.06;41.17;69.4;;
80864;Laerm;70936;51.680;5.974;2023-06-22T04:11:49;53.39;42.26;66.74;;
80864;Laerm;70936;51.680;5.974;2023-06-22T04:15:49;55.99;40.16;68.14;;
80864;Laerm;70936;51.680;5.974;2023-06-22T04:19:49;54.53;40.65;69.39;;
80864;Laerm;70936;51.680;5.974;2023-06-22T04:23:49;53.98;40.93;69.92;;
80864;Laerm;70936;51.680;5.974;2023-06-22T04:27:49;55.15;40.6;68.88;;
80864;Laerm;70936;51.680;5.974;2023-06-22T04:31:49;49.61;39.44;62.68;;
80864;Laerm;70936;51.680;5.974;2023-06-22T04:35:49;58.42;42.46;80.13;;
80864;Laerm;70936;51.680;5.974;2023-06-22T04:39:49;55.47;43.15;67.81;;
80864;Laerm;70936;51.680;5.974;2023-06-22T04:43:49;57.75;44.55;69.23;;
80864;Laerm;70936;51.680;5.974;2023-06-22T04:47:49;57.64;42.18;74.17;;
80864;Laerm;70936;51.680;5.974;2023-06-22T04:51:49;56.69;43.3;69.79;;
80864;Laerm;70936;51.680;5.974;2023-06-22T04:55:49;57.17;44.13;67.83;;
80864;Laerm;70936;51.680;5.974;2023-06-22T04:59:49;57.84;43.12;70.15;;
80864;Laerm;70936;51.680;5.974;2023-06-22T05:03:49;58.26;46.25;75.08;;
80864;Laerm;70936;51.680;5.974;2023-06-22T05:07:49;60.83;45.59;71.82;;
80864;Laerm;70936;51.680;5.974;2023-06-22T05:11:49;59.47;43.67;70.28;;
80864;Laerm;70936;51.680;5.974;2023-06-22T05:15:49;60.03;48.61;72.54;;
80864;Laerm;70936;51.680;5.974;2023-06-22T05:19:49;60.38;42.2;72.87;;
80864;Laerm;70936;51.680;5.974;2023-06-22T05:23:49;57.35;43.25;71.26;;
80864;Laerm;70936;51.680;5.974;2023-06-22T05:27:49;57.32;42.67;71;;
80864;Laerm;70936;51.680;5.974;2023-06-22T05:31:49;58.9;42.79;75.3;;
80864;Laerm;70936;51.680;5.974;2023-06-22T05:35:49;58.59;44.31;70.04;;
80864;Laerm;70936;51.680;5.974;2023-06-22T05:39:49;60.25;47.23;74.96;;
80864;Laerm;70936;51.680;5.974;2023-06-22T05:43:49;60.96;44.36;72.89;;
80864;Laerm;70936;51.680;5.974;2023-06-22T05:47:49;56.19;43.26;67.27;;
80864;Laerm;70936;51.680;5.974;2023-06-22T05:51:49;55.99;42.04;70.76;;
80864;Laerm;70936;51.680;5.974;2023-06-22T05:55:49;56.84;45.15;72.2;;
80864;Laerm;70936;51.680;5.974;2023-06-22T05:59:49;61.07;44.22;78.46;;
80864;Laerm;70936;51.680;5.974;2023-06-22T06:03:49;59.13;45.75;70.95;;
80864;Laerm;70936;51.680;5.974;2023-06-22T06:07:49;57.67;43.98;70.51;;
80864;Laerm;70936;51.680;5.974;2023-06-22T06:11:49;58.26;42.5;72.5;;
80864;Laerm;70936;51.680;5.974;2023-06-22T06:15:49;61.11;42.96;77.06;;
80864;Laerm;70936;51.680;5.974;2023-06-22T06:19:49;58.51;42.45;74.72;;
80864;Laerm;70936;51.680;5.974;2023-06-22T06:23:49;62.32;49.53;75.87;;
80864;Laerm;70936;51.680;5.974;2023-06-22T06:27:50;59.99;45.33;75.45;;
80864;Laerm;70936;51.680;5.974;2023-06-22T06:31:49;56.48;42.59;70.44;;
80864;Laerm;70936;51.680;5.974;2023-06-22T06:35:49;57.28;42.95;69.52;;
80864;Laerm;70936;51.680;5.974;2023-06-22T06:39:49;57.7;44.44;71.77;;
80864;Laerm;70936;51.680;5.974;2023-06-22T06:43:49;59.7;43.57;74.57;;
80864;Laerm;70936;51.680;5.974;2023-06-22T06:47:49;56.06;42.11;70.48;;
80864;Laerm;70936;51.680;5.974;2023-06-22T06:51:49;57.88;43.6;73.39;;
80864;Laerm;70936;51.680;5.974;2023-06-22T06:55:49;58.8;43.66;74.69;;
80864;Laerm;70936;51.680;5.974;2023-06-22T06:59:49;58.66;46.2;78.47;;
80864;Laerm;70936;51.680;5.974;2023-06-22T07:03:49;58.07;43.93;72.72;;
80864;Laerm;70936;51.680;5.974;2023-06-22T07:07:49;56.79;41.82;73.55;;
80864;Laerm;70936;51.680;5.974;2023-06-22T07:11:49;55.25;42.02;69.4;;
80864;Laerm;70936;51.680;5.974;2023-06-22T07:15:49;59.81;42.64;71.94;;
80864;Laerm;70936;51.680;5.974;2023-06-22T07:19:49;60.86;45.78;72.57;;
80864;Laerm;70936;51.680;5.974;2023-06-22T07:23:49;60.67;44.63;69.04;;
80864;Laerm;70936;51.680;5.974;2023-06-22T07:27:57;58.63;41.61;72.72;;
80864;Laerm;70936;51.680;5.974;2023-06-22T07:31:49;51.94;39.72;66.59;;
80864;Laerm;70936;51.680;5.974;2023-06-22T07:35:49;54.3;40.6;67.95;;
80864;Laerm;70936;51.680;5.974;2023-06-22T07:39:49;55.4;40.25;68.33;;
80864;Laerm;70936;51.680;5.974;2023-06-22T07:43:49;54.74;41.39;68.04;;
80864;Laerm;70936;51.680;5.974;2023-06-22T07:47:49;56.8;40.91;71.05;;
80864;Laerm;70936;51.680;5.974;2023-06-22T07:51:49;55.95;40.7;69.45;;
80864;Laerm;70936;51.680;5.974;2023-06-22T07:55:49;55.34;40.72;66.75;;
80864;Laerm;70936;51.680;5.974;2023-06-22T07:59:49;52.75;40.32;66.01;;
80864;Laerm;70936;51.680;5.974;2023-06-22T08:03:49;57.83;41.24;74.02;;
80864;Laerm;70936;51.680;5.974;2023-06-22T08:07:49;59.14;43.9;71.13;;
80864;Laerm;70936;51.680;5.974;2023-06-22T08:11:49;56.38;41.82;69.36;;
80864;Laerm;70936;51.680;5.974;2023-06-22T08:15:49;57.48;43;73.43;;
80864;Laerm;70936;51.680;5.974;2023-06-22T08:19:49;57.99;43.28;70.33;;
80864;Laerm;70936;51.680;5.974;2023-06-22T08:23:49;58.42;45.5;71.49;;
80864;Laerm;70936;51.680;5.974;2023-06-22T08:27:49;56.88;45.33;69.83;;
80864;Laerm;70936;51.680;5.974;2023-06-22T08:31:49;62.93;44.68;82.16;;
80864;Laerm;70936;51.680;5.974;2023-06-22T08:35:49;64.88;51.34;80.14;;
80864;Laerm;70936;51.680;5.974;2023-06-22T08:39:49;64.52;50.02;77.83;;
80864;Laerm;70936;51.680;5.974;2023-06-22T08:43:49;60.92;49.18;73.68;;
80864;Laerm;70936;51.680;5.974;2023-06-22T08:47:49;60.11;47.82;71.81;;
80864;Laerm;70936;51.680;5.974;2023-06-22T08:51:49;60.48;47.58;72.67;;
80864;Laerm;70936;51.680;5.974;2023-06-22T08:55:49;59.92;49;74.16;;
80864;Laerm;70936;51.680;5.974;2023-06-22T08:59:49;56.21;42.36;69.05;;
80864;Laerm;70936;51.680;5.974;2023-06-22T09:03:49;57.69;43.8;72.54;;
80864;Laerm;70936;51.680;5.974;2023-06-22T09:07:49;56.81;42.75;71.19;;
80864;Laerm;70936;51.680;5.974;2023-06-22T09:11:49;58.4;44.73;68.48;;
80864;Laerm;70936;51.680;5.974;2023-06-22T09:15:49;58.08;42.15;69.79;;
80864;Laerm;70936;51.680;5.974;2023-06-22T09:19:49;58.32;42.75;69.99;;
80864;Laerm;70936;51.680;5.974;2023-06-22T09:23:49;59;45.65;71.83;;
80864;Laerm;70936;51.680;5.974;2023-06-22T09:27:49;58.48;42.77;75.79;;
80864;Laerm;70936;51.680;5.974;2023-06-22T09:31:49;57.54;44.05;75.31;;
80864;Laerm;70936;51.680;5.974;2023-06-22T09:35:49;57.61;44.42;74.39;;
80864;Laerm;70936;51.680;5.974;2023-06-22T09:39:49;57.42;41.42;73.86;;
80864;Laerm;70936;51.680;5.974;2023-06-22T09:43:49;56.52;42.84;68.51;;
80864;Laerm;70936;51.680;5.974;2023-06-22T09:47:49;56.74;43.26;71.02;;
80864;Laerm;70936;51.680;5.974;2023-06-22T09:51:49;58.54;45.12;76.39;;
80864;Laerm;70936;51.680;5.974;2023-06-22T09:55:49;58.8;42.19;77.04;;
80864;Laerm;70936;51.680;5.974;2023-06-22T09:59:49;61.44;43.06;75.9;;
80864;Laerm;70936;51.680;5.974;2023-06-22T10:03:49;62.06;48.74;77.41;;
80864;Laerm;70936;51.680;5.974;2023-06-22T10:07:49;61.46;43.21;78.74;;
80864;Laerm;70936;51.680;5.974;2023-06-22T10:11:49;59.11;44.04;73.7;;
80864;Laerm;70936;51.680;5.974;2023-06-22T10:15:49;56.76;44.78;71.51;;
80864;Laerm;70936;51.680;5.974;2023-06-22T10:19:49;57.44;45.78;71.43;;
80864;Laerm;70936;51.680;5.974;2023-06-22T10:23:49;60.93;46.26;75.63;;
80864;Laerm;70936;51.680;5.974;2023-06-22T10:27:49;61.55;45.92;76.12;;
80864;Laerm;70936;51.680;5.974;2023-06-22T10:31:49;58.84;46.28;72.92;;
80864;Laerm;70936;51.680;5.974;2023-06-22T10:35:49;57.77;43.54;73.44;;
80864;Laerm;70936;51.680;5.974;2023-06-22T10:39:49;58.05;41.96;72.93;;
80864;Laerm;70936;51.680;5.974;2023-06-22T10:43:49;57.61;42.23;72.21;;
80864;Laerm;70936;51.680;5.974;2023-06-22T10:47:49;56.45;42.39;67.48;;
80864;Laerm;70936;51.680;5.974;2023-06-22T10:51:49;57.41;42.28;67.93;;
80864;Laerm;70936;51.680;5.974;2023-06-22T10:55:49;57.01;44.96;71.57;;
80864;Laerm;70936;51.680;5.974;2023-06-22T10:59:49;60.18;45.07;76.41;;
80864;Laerm;70936;51.680;5.974;2023-06-22T11:03:49;59.36;44.2;80.28;;
80864;Laerm;70936;51.680;5.974;2023-06-22T11:07:49;62.29;47.14;82.61;;
80864;Laerm;70936;51.680;5.974;2023-06-22T11:11:50;59.87;46.04;84.61;;
80864;Laerm;70936;51.680;5.974;2023-06-22T11:15:49;70.2;48.25;93.71;;
80864;Laerm;70936;51.680;5.974;2023-06-22T11:19:49;70.59;52.27;93.58;;
80864;Laerm;70936;51.680;5.974;2023-06-22T11:23:49;72.55;53.67;95.34;;
80864;Laerm;70936;51.680;5.974;2023-06-22T11:27:49;72.24;54.08;97.53;;
80864;Laerm;70936;51.680;5.974;2023-06-22T11:31:49;65.45;50.89;86.99;;
80864;Laerm;70936;51.680;5.974;2023-06-22T11:35:49;69.88;53.52;94.27;;
80864;Laerm;70936;51.680;5.974;2023-06-22T11:39:49;67.37;49.9;91.83;;
80864;Laerm;70936;51.680;5.974;2023-06-22T11:43:49;63.42;48.59;89.17;;
80864;Laerm;70936;51.680;5.974;2023-06-22T11:47:49;67.94;48.68;88.96;;
80864;Laerm;70936;51.680;5.974;2023-06-22T11:51:49;65.35;50.79;85.34;;
80864;Laerm;70936;51.680;5.974;2023-06-22T11:55:49;64.41;51.48;84.11;;
80864;Laerm;70936;51.680;5.974;2023-06-22T11:59:49;63.07;50.23;83.68;;
80864;Laerm;70936;51.680;5.974;2023-06-22T12:03:49;63.16;50.76;80.73;;
80864;Laerm;70936;51.680;5.974;2023-06-22T12:07:49;62.88;49.53;83.89;;
80864;Laerm;70936;51.680;5.974;2023-06-22T12:11:49;63.18;48.77;82.38;;
80864;Laerm;70936;51.680;5.974;2023-06-22T12:15:49;65.43;49.52;85.72;;
80864;Laerm;70936;51.680;5.974;2023-06-22T12:19:49;59.66;48.52;78.82;;
80864;Laerm;70936;51.680;5.974;2023-06-22T12:23:49;60.09;46.22;79.21;;
80864;Laerm;70936;51.680;5.974;2023-06-22T12:27:49;60.85;46.45;83.37;;
80864;Laerm;70936;51.680;5.974;2023-06-22T12:31:49;62.27;45.5;77.72;;
80864;Laerm;70936;51.680;5.974;2023-06-22T12:35:49;61.26;48.73;76.69;;
80864;Laerm;70936;51.680;5.974;2023-06-22T12:39:49;61.41;47.87;73.7;;
80864;Laerm;70936;51.680;5.974;2023-06-22T12:43:49;60.57;47.64;78.13;;
80864;Laerm;70936;51.680;5.974;2023-06-22T12:47:49;60.93;48.81;77.78;;
80864;Laerm;70936;51.680;5.974;2023-06-22T12:51:49;61.54;47.45;77.85;;
80864;Laerm;70936;51.680;5.974;2023-06-22T12:55:49;61.33;49.56;75.03;;
80864;Laerm;70936;51.680;5.974;2023-06-22T12:59:49;60.04;48.6;81.31;;
80864;Laerm;70936;51.680;5.974;2023-06-22T13:03:49;60.92;50.06;75.97;;
80864;Laerm;70936;51.680;5.974;2023-06-22T13:07:49;61.33;48.26;79.22;;
80864;Laerm;70936;51.680;5.974;2023-06-22T13:11:49;61.63;47.94;79.95;;
80864;Laerm;70936;51.680;5.974;2023-06-22T13:15:49;59.15;45.86;71.01;;
80864;Laerm;70936;51.680;5.974;2023-06-22T13:19:49;62.26;44.91;80.34;;
80864;Laerm;70936;51.680;5.974;2023-06-22T13:23:49;60.58;45.9;79.72;;
80864;Laerm;70936;51.680;5.974;2023-06-22T13:27:49;58.12;43;70.03;;
80864;Laerm;70936;51.680;5.974;2023-06-22T13:31:49;58.77;44.62;80.01;;
80864;Laerm;70936;51.680;5.974;2023-06-22T13:35:49;58.55;43.49;73.44;;
80864;Laerm;70936;51.680;5.974;2023-06-22T13:39:49;59.8;44.52;70.49;;
80864;Laerm;70936;51.680;5.974;2023-06-22T13:43:49;59.78;43.94;87.24;;
80864;Laerm;70936;51.680;5.974;2023-06-22T13:47:49;58.93;45.09;81.07;;
80864;Laerm;70936;51.680;5.974;2023-06-22T13:51:49;59.7;45.45;81.67;;
80864;Laerm;70936;51.680;5.974;2023-06-22T13:55:49;59.22;45.62;74.92;;
80864;Laerm;70936;51.680;5.974;2023-06-22T13:59:49;58.28;43.66;71.14;;
80864;Laerm;70936;51.680;5.974;2023-06-22T14:03:49;57.96;44.26;73.57;;
80864;Laerm;70936;51.680;5.974;2023-06-22T14:07:49;61.15;46.02;71.73;;
80864;Laerm;70936;51.680;5.974;2023-06-22T14:11:49;57.07;44.16;69.53;;
80864;Laerm;70936;51.680;5.974;2023-06-22T14:15:49;57.89;44.28;69.39;;
80864;Laerm;70936;51.680;5.974;2023-06-22T14:19:49;58.05;44.19;74.72;;
80864;Laerm;70936;51.680;5.974;2023-06-22T14:23:49;57.68;44.42;72.74;;
80864;Laerm;70936;51.680;5.974;2023-06-22T14:27:49;61.71;46.07;83.48;;
80864;Laerm;70936;51.680;5.974;2023-06-22T14:31:49;58.99;45.25;77.3;;
80864;Laerm;70936;51.680;5.974;2023-06-22T14:35:49;66.8;46.17;95.12;;
80864;Laerm;70936;51.680;5.974;2023-06-22T14:39:49;63.01;50.1;83.58;;
80864;Laerm;70936;51.680;5.974;2023-06-22T14:43:49;73.69;51.17;102.46;;
80864;Laerm;70936;51.680;5.974;2023-06-22T14:47:49;63.1;50.52;83.14;;
80864;Laerm;70936;51.680;5.974;2023-06-22T14:51:49;62.76;49.2;87.09;;
80864;Laerm;70936;51.680;5.974;2023-06-22T14:55:49;62;49.09;86.46;;
80864;Laerm;70936;51.680;5.974;2023-06-22T14:59:49;61.71;49.34;80.1;;
80864;Laerm;70936;51.680;5.974;2023-06-22T15:03:49;61.9;49.21;83.66;;
80864;Laerm;70936;51.680;5.974;2023-06-22T15:07:49;62.08;47.76;83.06;;
80864;Laerm;70936;51.680;5.974;2023-06-22T15:11:49;59.42;45.99;79.14;;
80864;Laerm;70936;51.680;5.974;2023-06-22T15:15:50;59.34;45.65;86.66;;
80864;Laerm;70936;51.680;5.974;2023-06-22T15:19:49;62.68;48.77;86.8;;
80864;Laerm;70936;51.680;5.974;2023-06-22T15:23:49;64.94;51.34;88.63;;
80864;Laerm;70936;51.680;5.974;2023-06-22T15:27:49;66.4;51.91;92.3;;
80864;Laerm;70936;51.680;5.974;2023-06-22T15:31:49;66.3;50.49;95.68;;
80864;Laerm;70936;51.680;5.974;2023-06-22T15:35:49;66.56;52.77;92.09;;
80864;Laerm;70936;51.680;5.974;2023-06-22T15:39:49;66.37;51.7;93.44;;
80864;Laerm;70936;51.680;5.974;2023-06-22T15:43:49;69.31;52.52;99.61;;
80864;Laerm;70936;51.680;5.974;2023-06-22T15:47:49;68.18;52.16;89.04;;
80864;Laerm;70936;51.680;5.974;2023-06-22T15:51:49;66.34;52.43;91.1;;
80864;Laerm;70936;51.680;5.974;2023-06-22T15:55:49;66.6;52.75;88.21;;
80864;Laerm;70936;51.680;5.974;2023-06-22T15:59:49;69.39;53.72;95.78;;
80864;Laerm;70936;51.680;5.974;2023-06-22T16:03:49;67.76;53.42;93.23;;
80864;Laerm;70936;51.680;5.974;2023-06-22T16:07:49;66.12;52.35;92.16;;
80864;Laerm;70936;51.680;5.974;2023-06-22T16:11:49;68.65;53.81;92.12;;
80864;Laerm;70936;51.680;5.974;2023-06-22T16:15:49;67.78;52.75;95.96;;
80864;Laerm;70936;51.680;5.974;2023-06-22T16:23:49;66.15;50.07;95.08;;
80864;Laerm;70936;51.680;5.974;2023-06-22T16:27:49;59.67;46.6;84.71;;
80864;Laerm;70936;51.680;5.974;2023-06-22T16:31:49;63.36;46;94.53;;
80864;Laerm;70936;51.680;5.974;2023-06-22T16:35:49;67.49;49.84;94.69;;
80864;Laerm;70936;51.680;5.974;2023-06-22T16:39:49;72.32;54.64;96.6;;
80864;Laerm;70936;51.680;5.974;2023-06-22T16:43:49;69.84;53.55;92.66;;
80864;Laerm;70936;51.680;5.974;2023-06-22T16:47:51;65.59;52.01;89.02;;
80864;Laerm;70936;51.680;5.974;2023-06-22T16:51:49;66.61;52.04;91.69;;
80864;Laerm;70936;51.680;5.974;2023-06-22T16:55:49;64.44;50.53;87.7;;
80864;Laerm;70936;51.680;5.974;2023-06-22T16:59:51;67.1;51;94.36;;
80864;Laerm;70936;51.680;5.974;2023-06-22T17:03:59;68.97;53.19;94.19;;
80864;Laerm;70936;51.680;5.974;2023-06-22T17:07:52;69.92;53.33;93.67;;
80864;Laerm;70936;51.680;5.974;2023-06-22T17:11:51;68.65;51.1;96.63;;
80864;Laerm;70936;51.680;5.974;2023-06-22T17:15:55;67.92;51.21;92.46;;
80864;Laerm;70936;51.680;5.974;2023-06-22T17:19:49;69.86;51.51;95.68;;
80864;Laerm;70936;51.680;5.974;2023-06-22T17:23:49;72.11;53.05;98.77;;
80864;Laerm;70936;51.680;5.974;2023-06-22T17:27:49;69.87;52.68;94.13;;
80864;Laerm;70936;51.680;5.974;2023-06-22T17:31:49;67.43;49.73;91.88;;
80864;Laerm;70936;51.680;5.974;2023-06-22T17:35:49;65.68;48.65;89.58;;
80864;Laerm;70936;51.680;5.974;2023-06-22T17:39:52;65.4;46.96;90.47;;
80864;Laerm;70936;51.680;5.974;2023-06-22T17:43:49;61.59;43.18;92.87;;
80864;Laerm;70936;51.680;5.974;2023-06-22T17:47:50;57.58;42.35;82.27;;
80864;Laerm;70936;51.680;5.974;2023-06-22T17:51:50;55.82;42.64;75.91;;
80864;Laerm;70936;51.680;5.974;2023-06-22T17:55:52;60.13;42.06;90.09;;
80864;Laerm;70936;51.680;5.974;2023-06-22T17:59:49;62.55;43.78;89.56;;
80864;Laerm;70936;51.680;5.974;2023-06-22T18:03:49;65.32;45.62;96.74;;
80864;Laerm;70936;51.680;5.974;2023-06-22T18:07:51;63.94;45.3;92.2;;
80864;Laerm;70936;51.680;5.974;2023-06-22T18:11:50;68.36;48.02;93.74;;
80864;Laerm;70936;51.680;5.974;2023-06-22T18:15:51;72.52;49.55;99.41;;
80864;Laerm;70936;51.680;5.974;2023-06-22T18:19:49;73.19;50.18;99.18;;
80864;Laerm;70936;51.680;5.974;2023-06-22T18:23:49;68.44;47.86;93.52;;
80864;Laerm;70936;51.680;5.974;2023-06-22T18:27:49;63.84;46.05;87.33;;
80864;Laerm;70936;51.680;5.974;2023-06-22T18:31:49;62.53;44.86;90.7;;
80864;Laerm;70936;51.680;5.974;2023-06-22T18:35:50;62.91;43.51;90.32;;
80864;Laerm;70936;51.680;5.974;2023-06-22T18:39:53;64.27;43.28;94.92;;
80864;Laerm;70936;51.680;5.974;2023-06-22T18:43:51;60.75;41.47;91.74;;
80864;Laerm;70936;51.680;5.974;2023-06-22T18:47:55;58.39;41.12;86.33;;
80864;Laerm;70936;51.680;5.974;2023-06-22T18:51:51;57.96;40.38;84.17;;
80864;Laerm;70936;51.680;5.974;2023-06-22T18:55:50;58.47;39.26;86.64;;
80864;Laerm;70936;51.680;5.974;2023-06-22T18:59:50;62.36;39.68;93.13;;
80864;Laerm;70936;51.680;5.974;2023-06-22T19:03:49;60.3;41.1;84.5;;
80864;Laerm;70936;51.680;5.974;2023-06-22T19:07:57;58.58;40.12;86.4;;
80864;Laerm;70936;51.680;5.974;2023-06-22T19:11:49;52.04;38.97;74.26;;
80864;Laerm;70936;51.680;5.974;2023-06-22T19:15:51;52.62;38.1;67.69;;
80864;Laerm;70936;51.680;5.974;2023-06-22T19:19:51;51.66;37.61;68.7;;
80864;Laerm;70936;51.680;5.974;2023-06-22T19:23:49;54.99;37.72;81.85;;
80864;Laerm;70936;51.680;5.974;2023-06-22T19:27:50;50.43;36.18;71.3;;
80864;Laerm;70936;51.680;5.974;2023-06-22T19:31:50;55.14;36.86;81.95;;
80864;Laerm;70936;51.680;5.974;2023-06-22T19:35:50;54.15;38.49;77.59;;
80864;Laerm;70936;51.680;5.974;2023-06-22T19:39:51;55.42;38.54;70.18;;
80864;Laerm;70936;51.680;5.974;2023-06-22T19:43:49;53.71;35.7;75.27;;
80864;Laerm;70936;51.680;5.974;2023-06-22T19:47:49;53.65;36.36;72.18;;
80864;Laerm;70936;51.680;5.974;2023-06-22T19:51:49;49.72;37.19;68.65;;
80864;Laerm;70936;51.680;5.974;2023-06-22T19:55:49;50.98;36.7;70.15;;
80864;Laerm;70936;51.680;5.974;2023-06-22T19:59:49;55.07;35.7;82.6;;
80864;Laerm;70936;51.680;5.974;2023-06-22T20:03:49;55.26;36.1;82.31;;
80864;Laerm;70936;51.680;5.974;2023-06-22T20:07:49;57.26;37.4;79.73;;
80864;Laerm;70936;51.680;5.974;2023-06-22T20:11:55;51.92;36.39;72.87;;
80864;Laerm;70936;51.680;5.974;2023-06-22T20:15:49;53.54;36.17;83.65;;
80864;Laerm;70936;51.680;5.974;2023-06-22T20:19:53;52.9;36.26;78.57;;
80864;Laerm;70936;51.680;5.974;2023-06-22T20:23:49;51.69;35.28;77.36;;
80864;Laerm;70936;51.680;5.974;2023-06-22T20:27:50;47.48;35.04;69.03;;
80864;Laerm;70936;51.680;5.974;2023-06-22T20:31:49;49.08;35.16;71.74;;
80864;Laerm;70936;51.680;5.974;2023-06-22T20:35:49;50.71;35;69.48;;
80864;Laerm;70936;51.680;5.974;2023-06-22T20:39:49;49.77;34.1;68.34;;
80864;Laerm;70936;51.680;5.974;2023-06-22T20:43:52;46.23;34.68;61.42;;
80864;Laerm;70936;51.680;5.974;2023-06-22T20:47:49;49.47;33.73;66.53;;
80864;Laerm;70936;51.680;5.974;2023-06-22T20:51:50;48.03;33.52;71.11;;
80864;Laerm;70936;51.680;5.974;2023-06-22T20:55:49;46.09;33.43;61.84;;
80864;Laerm;70936;51.680;5.974;2023-06-22T20:59:49;49.73;34.57;67.32;;
80864;Laerm;70936;51.680;5.974;2023-06-22T21:03:49;51.18;36.11;68.02;;
80864;Laerm;70936;51.680;5.974;2023-06-22T21:07:49;48.85;34.54;65.61;;
80864;Laerm;70936;51.680;5.974;2023-06-22T21:11:49;47.05;34.29;65.93;;
80864;Laerm;70936;51.680;5.974;2023-06-22T21:15:49;44.94;34.38;63.36;;
80864;Laerm;70936;51.680;5.974;2023-06-22T21:19:49;44.79;34.73;63.8;;
80864;Laerm;70936;51.680;5.974;2023-06-22T21:23:49;50.97;35.63;68.43;;
80864;Laerm;70936;51.680;5.974;2023-06-22T21:27:49;49.74;35.3;68.41;;
80864;Laerm;70936;51.680;5.974;2023-06-22T21:31:49;52.77;37.58;81;;
80864;Laerm;70936;51.680;5.974;2023-06-22T21:35:49;56.08;36.02;80.17;;
80864;Laerm;70936;51.680;5.974;2023-06-22T21:39:50;46.03;35.37;67.9;;
80864;Laerm;70936;51.680;5.974;2023-06-22T21:43:49;40.57;35.08;63.22;;
80864;Laerm;70936;51.680;5.974;2023-06-22T21:47:49;43.47;36.39;63.66;;
80864;Laerm;70936;51.680;5.974;2023-06-22T21:51:49;48.37;36.83;67.16;;
80864;Laerm;70936;51.680;5.974;2023-06-22T21:55:49;42.92;33.32;62.38;;
80864;Laerm;70936;51.680;5.974;2023-06-22T21:59:49;43.41;33.82;60.96;;
80864;Laerm;70936;51.680;5.974;2023-06-22T22:03:49;38.24;33.35;51.93;;
80864;Laerm;70936;51.680;5.974;2023-06-22T22:07:50;44.3;33.63;63.5;;
80864;Laerm;70936;51.680;5.974;2023-06-22T22:11:49;49.26;33.82;67.04;;
80864;Laerm;70936;51.680;5.974;2023-06-22T22:15:49;43.26;34.47;61.65;;
80864;Laerm;70936;51.680;5.974;2023-06-22T22:19:49;38.2;33.87;48.9;;
80864;Laerm;70936;51.680;5.974;2023-06-22T22:23:49;41.96;34.15;60.22;;
80864;Laerm;70936;51.680;5.974;2023-06-22T22:27:49;46.67;34.77;64.43;;
80864;Laerm;70936;51.680;5.974;2023-06-22T22:31:49;44.12;34.06;62.46;;
80864;Laerm;70936;51.680;5.974;2023-06-22T22:35:49;40.99;34.24;54.46;;